sensor_id;sensor_type;location;lat;lon;timestamp;pressure;altitude;pressure_sealevel;temperature;humidity
46724;BME280;32463;48.298;11.620;2023-03-14T00:00:06;94849.28;;;9.24;100.00
46724;BME280;32463;48.298;11.620;2023-03-14T00:02:36;94850.16;;;9.31;100.00
46724;BME280;32463;48.298;11.620;2023-03-14T00:05:02;94852.59;;;9.39;100.00
46724;BME280;32463;48.298;11.620;2023-03-14T00:07:38;94854.94;;;9.34;100.00
46724;BME280;32463;48.298;11.620;2023-03-14T00:10:09;94852.13;;;9.29;100.00
46724;BME280;32463;48.298;11.620;2023-03-14T00:12:36;94850.09;;;9.25;100.00
46724;BME280;32463;48.298;11.620;2023-03-14T00:15:03;94842.16;;;9.26;100.00
46724;BME280;32463;48.298;11.620;2023-03-14T00:17:32;94835.00;;;9.28;100.00
46724;BME280;32463;48.298;11.620;2023-03-14T00:19:59;94834.75;;;9.23;100.00
46724;BME280;32463;48.298;11.620;2023-03-14T00:22:34;94821.84;;;9.23;100.00
46724;BME280;32463;48.298;11.620;2023-03-14T00:25:01;94815.03;;;9.16;100.00
46724;BME280;32463;48.298;11.620;2023-03-14T00:27:28;94834.75;;;9.23;100.00
46724;BME280;32463;48.298;11.620;2023-03-14T00:29:54;94833.41;;;9.27;100.00
46724;BME280;32463;48.298;11.620;2023-03-14T00:32:21;94841.34;;;9.26;100.00
46724;BME280;32463;48.298;11.620;2023-03-14T00:34:47;94826.25;;;9.29;100.00
46724;BME280;32463;48.298;11.620;2023-03-14T00:37:14;94830.13;;;9.40;100.00
46724;BME280;32463;48.298;11.620;2023-03-14T00:39:41;94814.44;;;9.41;100.00
46724;BME280;32463;48.298;11.620;2023-03-14T00:42:07;94801.63;;;9.33;100.00
46724;BME280;32463;48.298;11.620;2023-03-14T00:44:34;94812.41;;;9.37;100.00
46724;BME280;32463;48.298;11.620;2023-03-14T00:47:02;94812.72;;;9.27;100.00
46724;BME280;32463;48.298;11.620;2023-03-14T00:49:29;94823.06;;;9.27;100.00
46724;BME280;32463;48.298;11.620;2023-03-14T00:51:56;94832.16;;;9.23;100.00
46724;BME280;32463;48.298;11.620;2023-03-14T00:54:23;94838.94;;;9.24;100.00
46724;BME280;32463;48.298;11.620;2023-03-14T00:56:50;94844.97;;;9.31;100.00
46724;BME280;32463;48.298;11.620;2023-03-14T00:59:16;94847.38;;;9.33;100.00
46724;BME280;32463;48.298;11.620;2023-03-14T01:01:43;94852.22;;;9.42;100.00
46724;BME280;32463;48.298;11.620;2023-03-14T01:04:10;94856.41;;;9.43;100.00
46724;BME280;32463;48.298;11.620;2023-03-14T01:06:36;94852.84;;;9.44;100.00
46724;BME280;32463;48.298;11.620;2023-03-14T01:09:03;94857.03;;;9.45;100.00
46724;BME280;32463;48.298;11.620;2023-03-14T01:11:32;94877.56;;;9.54;100.00
46724;BME280;32463;48.298;11.620;2023-03-14T01:14:00;94873.00;;;9.56;100.00
46724;BME280;32463;48.298;11.620;2023-03-14T01:16:28;94862.91;;;9.61;100.00
46724;BME280;32463;48.298;11.620;2023-03-14T01:18:55;94871.03;;;9.58;100.00
46724;BME280;32463;48.298;11.620;2023-03-14T01:21:24;94871.16;;;9.50;100.00
46724;BME280;32463;48.298;11.620;2023-03-14T01:23:53;94864.94;;;9.37;100.00
46724;BME280;32463;48.298;11.620;2023-03-14T01:26:21;94870.59;;;9.48;100.00
46724;BME280;32463;48.298;11.620;2023-03-14T01:28:50;94864.13;;;9.37;100.00
46724;BME280;32463;48.298;11.620;2023-03-14T01:31:16;94872.69;;;9.37;100.00
46724;BME280;32463;48.298;11.620;2023-03-14T01:33:44;94868.44;;;9.30;100.00
46724;BME280;32463;48.298;11.620;2023-03-14T01:36:11;94878.28;;;9.20;100.00
46724;BME280;32463;48.298;11.620;2023-03-14T01:38:39;94884.66;;;9.17;100.00
46724;BME280;32463;48.298;11.620;2023-03-14T01:41:07;94887.72;;;9.06;100.00
46724;BME280;32463;48.298;11.620;2023-03-14T01:43:34;94876.88;;;8.96;100.00
46724;BME280;32463;48.298;11.620;2023-03-14T01:48:42;94883.34;;;8.85;100.00
46724;BME280;32463;48.298;11.620;2023-03-14T01:51:19;94886.84;;;8.77;100.00
46724;BME280;32463;48.298;11.620;2023-03-14T01:53:47;94889.78;;;8.74;100.00
46724;BME280;32463;48.298;11.620;2023-03-14T01:56:17;94895.75;;;8.75;100.00
46724;BME280;32463;48.298;11.620;2023-03-14T01:58:48;94896.13;;;8.72;100.00
46724;BME280;32463;48.298;11.620;2023-03-14T02:01:18;94899.59;;;8.64;100.00
46724;BME280;32463;48.298;11.620;2023-03-14T02:03:53;94902.66;;;8.53;100.00
46724;BME280;32463;48.298;11.620;2023-03-14T02:06:23;94898.84;;;8.49;100.00
46724;BME280;32463;48.298;11.620;2023-03-14T02:08:52;94901.53;;;8.41;100.00
46724;BME280;32463;48.298;11.620;2023-03-14T02:11:19;94905.06;;;8.40;100.00
46724;BME280;32463;48.298;11.620;2023-03-14T02:13:46;94895.28;;;8.35;100.00
46724;BME280;32463;48.298;11.620;2023-03-14T02:16:13;94883.53;;;8.18;100.00
46724;BME280;32463;48.298;11.620;2023-03-14T02:18:40;94877.03;;;8.07;100.00
46724;BME280;32463;48.298;11.620;2023-03-14T02:21:37;94865.09;;;8.06;100.00
46724;BME280;32463;48.298;11.620;2023-03-14T02:24:27;94851.94;;;8.01;100.00
46724;BME280;32463;48.298;11.620;2023-03-14T02:27:04;94847.13;;;7.98;100.00
46724;BME280;32463;48.298;11.620;2023-03-14T02:30:01;94826.47;;;7.98;100.00
46724;BME280;32463;48.298;11.620;2023-03-14T02:32:30;94807.78;;;7.96;100.00
46724;BME280;32463;48.298;11.620;2023-03-14T02:34:59;94787.78;;;7.98;100.00
46724;BME280;32463;48.298;11.620;2023-03-14T02:38:22;94775.22;;;7.95;100.00
46724;BME280;32463;48.298;11.620;2023-03-14T02:40:39;94750.44;;;7.94;100.00
46724;BME280;32463;48.298;11.620;2023-03-14T02:43:05;94735.94;;;7.93;100.00
46724;BME280;32463;48.298;11.620;2023-03-14T02:45:38;94738.25;;;7.88;100.00
46724;BME280;32463;48.298;11.620;2023-03-14T02:50:45;94748.94;;;7.85;100.00
46724;BME280;32463;48.298;11.620;2023-03-14T02:53:16;94741.91;;;7.79;100.00
46724;BME280;32463;48.298;11.620;2023-03-14T02:55:45;94735.50;;;7.75;100.00
46724;BME280;32463;48.298;11.620;2023-03-14T02:58:12;94733.91;;;7.74;100.00
46724;BME280;32463;48.298;11.620;2023-03-14T03:00:39;94729.91;;;7.71;100.00
46724;BME280;32463;48.298;11.620;2023-03-14T03:03:05;94731.69;;;7.71;100.00
46724;BME280;32463;48.298;11.620;2023-03-14T03:05:32;94738.34;;;7.65;100.00
46724;BME280;32463;48.298;11.620;2023-03-14T03:07:59;94746.72;;;7.67;100.00
46724;BME280;32463;48.298;11.620;2023-03-14T03:10:27;94749.84;;;7.63;100.00
46724;BME280;32463;48.298;11.620;2023-03-14T03:12:54;94736.97;;;7.63;100.00
46724;BME280;32463;48.298;11.620;2023-03-14T03:15:20;94740.34;;;7.63;100.00
46724;BME280;32463;48.298;11.620;2023-03-14T03:17:46;94730.81;;;7.64;100.00
46724;BME280;32463;48.298;11.620;2023-03-14T03:20:13;94735.88;;;7.72;100.00
46724;BME280;32463;48.298;11.620;2023-03-14T03:22:39;94739.69;;;7.76;100.00
46724;BME280;32463;48.298;11.620;2023-03-14T03:25:07;94746.09;;;7.80;100.00
46724;BME280;32463;48.298;11.620;2023-03-14T03:27:35;94729.88;;;7.86;100.00
46724;BME280;32463;48.298;11.620;2023-03-14T03:30:07;94730.88;;;7.85;100.00
46724;BME280;32463;48.298;11.620;2023-03-14T03:32:34;94729.88;;;7.86;100.00
46724;BME280;32463;48.298;11.620;2023-03-14T03:35:02;94720.38;;;7.87;100.00
46724;BME280;32463;48.298;11.620;2023-03-14T03:37:33;94728.28;;;7.85;100.00
46724;BME280;32463;48.298;11.620;2023-03-14T03:40:00;94728.66;;;7.82;100.00
46724;BME280;32463;48.298;11.620;2023-03-14T03:42:29;94720.28;;;7.80;100.00
46724;BME280;32463;48.298;11.620;2023-03-14T03:44:56;94712.28;;;7.75;100.00
46724;BME280;32463;48.298;11.620;2023-03-14T03:47:22;94713.53;;;7.79;100.00
46724;BME280;32463;48.298;11.620;2023-03-14T03:49:49;94704.44;;;7.83;100.00
46724;BME280;32463;48.298;11.620;2023-03-14T03:52:16;94702.22;;;7.80;100.00
46724;BME280;32463;48.298;11.620;2023-03-14T03:54:43;94705.16;;;7.77;100.00
46724;BME280;32463;48.298;11.620;2023-03-14T03:57:09;94704.56;;;7.75;100.00
46724;BME280;32463;48.298;11.620;2023-03-14T03:59:35;94701.97;;;7.75;100.00
46724;BME280;32463;48.298;11.620;2023-03-14T04:02:03;94704.38;;;7.76;100.00
46724;BME280;32463;48.298;11.620;2023-03-14T04:04:30;94702.78;;;7.75;100.00
46724;BME280;32463;48.298;11.620;2023-03-14T04:06:56;94698.41;;;7.76;100.00
46724;BME280;32463;48.298;11.620;2023-03-14T04:09:23;94691.28;;;7.78;100.00
46724;BME280;32463;48.298;11.620;2023-03-14T04:11:49;94692.91;;;7.79;100.00
46724;BME280;32463;48.298;11.620;2023-03-14T04:14:16;94683.81;;;7.83;100.00
46724;BME280;32463;48.298;11.620;2023-03-14T04:16:43;94696.19;;;7.73;100.00
46724;BME280;32463;48.298;11.620;2023-03-14T04:19:09;94685.16;;;7.79;100.00
46724;BME280;32463;48.298;11.620;2023-03-14T04:21:36;94688.53;;;7.80;100.00
46724;BME280;32463;48.298;11.620;2023-03-14T04:24:05;94693.94;;;7.85;100.00
46724;BME280;32463;48.298;11.620;2023-03-14T04:26:32;94681.78;;;7.78;100.00
46724;BME280;32463;48.298;11.620;2023-03-14T04:28:58;94685.69;;;7.74;100.00
46724;BME280;32463;48.298;11.620;2023-03-14T04:31:25;94677.16;;;7.74;100.00
46724;BME280;32463;48.298;11.620;2023-03-14T04:33:51;94679.38;;;7.77;100.00
46724;BME280;32463;48.298;11.620;2023-03-14T04:36:18;94675.81;;;7.78;100.00
46724;BME280;32463;48.298;11.620;2023-03-14T04:38:44;94666.47;;;7.77;100.00
46724;BME280;32463;48.298;11.620;2023-03-14T04:41:11;94663.03;;;7.70;100.00
46724;BME280;32463;48.298;11.620;2023-03-14T04:43:38;94673.69;;;7.82;100.00
46724;BME280;32463;48.298;11.620;2023-03-14T04:46:04;94661.69;;;7.74;100.00
46724;BME280;32463;48.298;11.620;2023-03-14T04:48:31;94674.94;;;7.71;100.00
46724;BME280;32463;48.298;11.620;2023-03-14T04:50:58;94668.63;;;7.73;100.00
46724;BME280;32463;48.298;11.620;2023-03-14T04:53:24;94670.28;;;7.81;100.00
46724;BME280;32463;48.298;11.620;2023-03-14T04:55:52;94665.06;;;7.74;100.00
46724;BME280;32463;48.298;11.620;2023-03-14T04:58:20;94659.63;;;7.84;100.00
46724;BME280;32463;48.298;11.620;2023-03-14T05:00:47;94646.09;;;7.82;100.00
46724;BME280;32463;48.298;11.620;2023-03-14T05:03:15;94651.97;;;7.76;100.00
46724;BME280;32463;48.298;11.620;2023-03-14T05:05:42;94635.63;;;7.69;100.00
46724;BME280;32463;48.298;11.620;2023-03-14T05:08:09;94629.38;;;7.78;100.00
46724;BME280;32463;48.298;11.620;2023-03-14T05:10:35;94627.44;;;7.80;100.00
46724;BME280;32463;48.298;11.620;2023-03-14T05:13:02;94629.66;;;7.68;100.00
46724;BME280;32463;48.298;11.620;2023-03-14T05:15:29;94630.84;;;7.66;100.00
46724;BME280;32463;48.298;11.620;2023-03-14T05:17:55;94635.63;;;7.69;100.00
46724;BME280;32463;48.298;11.620;2023-03-14T05:20:22;94629.13;;;7.73;100.00
46724;BME280;32463;48.298;11.620;2023-03-14T05:22:48;94631.59;;;7.60;100.00
46724;BME280;32463;48.298;11.620;2023-03-14T05:25:14;94635.63;;;7.69;100.00
46724;BME280;32463;48.298;11.620;2023-03-14T05:27:41;94632.56;;;7.59;100.00
46724;BME280;32463;48.298;11.620;2023-03-14T05:30:08;94635.94;;;7.59;100.00
46724;BME280;32463;48.298;11.620;2023-03-14T05:32:35;94633.91;;;7.55;100.00
46724;BME280;32463;48.298;11.620;2023-03-14T05:35:02;94626.53;;;7.52;100.00
46724;BME280;32463;48.298;11.620;2023-03-14T05:37:28;94637.09;;;7.57;100.00
46724;BME280;32463;48.298;11.620;2023-03-14T05:39:54;94639.06;;;7.55;100.00
46724;BME280;32463;48.298;11.620;2023-03-14T05:42:21;94638.88;;;7.56;100.00
46724;BME280;32463;48.298;11.620;2023-03-14T05:44:47;94626.34;;;7.53;100.00
46724;BME280;32463;48.298;11.620;2023-03-14T05:47:14;94628.44;;;7.64;100.00
46724;BME280;32463;48.298;11.620;2023-03-14T05:49:40;94632.31;;;7.54;100.00
46724;BME280;32463;48.298;11.620;2023-03-14T05:52:07;94626.16;;;7.55;100.00
46724;BME280;32463;48.298;11.620;2023-03-14T05:54:33;94627.16;;;7.54;100.00
46724;BME280;32463;48.298;11.620;2023-03-14T05:57:00;94637.47;;;7.54;100.00
46724;BME280;32463;48.298;11.620;2023-03-14T05:59:26;94632.31;;;7.54;100.00
46724;BME280;32463;48.298;11.620;2023-03-14T06:01:53;94618.50;;;7.61;100.00
46724;BME280;32463;48.298;11.620;2023-03-14T06:04:19;94623.09;;;7.66;100.00
46724;BME280;32463;48.298;11.620;2023-03-14T06:06:46;94620.47;;;7.59;100.00
46724;BME280;32463;48.298;11.620;2023-03-14T06:09:12;94616.47;;;7.57;100.00
46724;BME280;32463;48.298;11.620;2023-03-14T06:11:39;94618.88;;;7.58;100.00
46724;BME280;32463;48.298;11.620;2023-03-14T06:14:05;94615.00;;;7.69;100.00
46724;BME280;32463;48.298;11.620;2023-03-14T06:16:32;94613.41;;;7.68;100.00
46724;BME280;32463;48.298;11.620;2023-03-14T06:18:58;94610.28;;;7.72;100.00
46724;BME280;32463;48.298;11.620;2023-03-14T06:21:25;94605.03;;;7.66;100.00
46724;BME280;32463;48.298;11.620;2023-03-14T06:23:51;94608.25;;;7.68;100.00
46724;BME280;32463;48.298;11.620;2023-03-14T06:26:18;94615.31;;;7.81;100.00
46724;BME280;32463;48.298;11.620;2023-03-14T06:31:11;94610.59;;;7.84;100.00
46724;BME280;32463;48.298;11.620;2023-03-14T06:33:37;94604.47;;;7.85;100.00
46724;BME280;32463;48.298;11.620;2023-03-14T06:36:04;94596.16;;;7.90;100.00
46724;BME280;32463;48.298;11.620;2023-03-14T06:38:31;94596.97;;;7.90;100.00
46724;BME280;32463;48.298;11.620;2023-03-14T06:41:06;94590.69;;;7.99;100.00
46724;BME280;32463;48.298;11.620;2023-03-14T06:43:33;94590.31;;;8.02;100.00
46724;BME280;32463;48.298;11.620;2023-03-14T06:46:00;94570.22;;;7.98;100.00
46724;BME280;32463;48.298;11.620;2023-03-14T06:48:29;94566.91;;;8.04;100.00
46724;BME280;32463;48.298;11.620;2023-03-14T06:50:55;94579.75;;;8.19;100.00
46724;BME280;32463;48.298;11.620;2023-03-14T06:53:22;94581.38;;;8.26;100.00
46724;BME280;32463;48.298;11.620;2023-03-14T06:55:48;94580.97;;;8.23;100.00
46724;BME280;32463;48.298;11.620;2023-03-14T06:58:15;94586.53;;;8.26;100.00
46724;BME280;32463;48.298;11.620;2023-03-14T07:00:42;94594.09;;;8.28;100.00
46724;BME280;32463;48.298;11.620;2023-03-14T07:03:09;94599.69;;;8.31;100.00
46724;BME280;32463;48.298;11.620;2023-03-14T07:05:36;94620.06;;;8.41;100.00
46724;BME280;32463;48.298;11.620;2023-03-14T07:08:05;94614.88;;;8.41;100.00
46724;BME280;32463;48.298;11.620;2023-03-14T07:10:32;94625.03;;;8.42;100.00
46724;BME280;32463;48.298;11.620;2023-03-14T07:12:59;94631.00;;;8.43;100.00
46724;BME280;32463;48.298;11.620;2023-03-14T07:15:25;94628.66;;;8.48;100.00
46724;BME280;32463;48.298;11.620;2023-03-14T07:17:52;94630.88;;;8.51;100.00
46724;BME280;32463;48.298;11.620;2023-03-14T07:20:18;94638.06;;;8.56;100.00
46724;BME280;32463;48.298;11.620;2023-03-14T07:22:47;94639.06;;;8.61;100.00
46724;BME280;32463;48.298;11.620;2023-03-14T07:25:15;94631.69;;;8.58;100.00
46724;BME280;32463;48.298;11.620;2023-03-14T07:27:45;94622.97;;;8.59;100.00
46724;BME280;32463;48.298;11.620;2023-03-14T07:30:13;94629.72;;;8.60;100.00
46724;BME280;32463;48.298;11.620;2023-03-14T07:32:40;94620.16;;;8.54;100.00
46724;BME280;32463;48.298;11.620;2023-03-14T07:35:07;94614.22;;;8.60;100.00
46724;BME280;32463;48.298;11.620;2023-03-14T07:37:33;94624.56;;;8.60;100.00
46724;BME280;32463;48.298;11.620;2023-03-14T07:40:00;94619.19;;;8.55;100.00
46724;BME280;32463;48.298;11.620;2023-03-14T07:42:27;94618.59;;;8.60;100.00
46724;BME280;32463;48.298;11.620;2023-03-14T07:44:53;94605.13;;;8.64;100.00
46724;BME280;32463;48.298;11.620;2023-03-14T07:47:20;94601.53;;;8.65;100.00
46724;BME280;32463;48.298;11.620;2023-03-14T07:49:46;94593.19;;;8.63;100.00
46724;BME280;32463;48.298;11.620;2023-03-14T07:52:13;94590.03;;;8.68;100.00
46724;BME280;32463;48.298;11.620;2023-03-14T07:54:39;94602.63;;;8.77;100.00
46724;BME280;32463;48.298;11.620;2023-03-14T07:57:06;94601.69;;;8.85;100.00
46724;BME280;32463;48.298;11.620;2023-03-14T07:59:32;94599.34;;;8.97;100.00
46724;BME280;32463;48.298;11.620;2023-03-14T08:01:59;94600.19;;;9.04;100.00
46724;BME280;32463;48.298;11.620;2023-03-14T08:04:25;94608.78;;;9.11;100.00
46724;BME280;32463;48.298;11.620;2023-03-14T08:06:52;94606.19;;;9.11;100.00
46724;BME280;32463;48.298;11.620;2023-03-14T08:09:19;94608.22;;;9.22;100.00
46724;BME280;32463;48.298;11.620;2023-03-14T08:11:46;94616.41;;;9.32;100.00
46724;BME280;32463;48.298;11.620;2023-03-14T08:14:12;94614.22;;;9.29;100.00
46724;BME280;32463;48.298;11.620;2023-03-14T08:16:39;94600.72;;;9.34;100.00
46724;BME280;32463;48.298;11.620;2023-03-14T08:19:05;94618.63;;;9.35;100.00
46724;BME280;32463;48.298;11.620;2023-03-14T08:21:31;94614.66;;;9.39;100.00
46724;BME280;32463;48.298;11.620;2023-03-14T08:23:58;94618.28;;;9.52;100.00
46724;BME280;32463;48.298;11.620;2023-03-14T08:26:26;94612.16;;;9.66;100.00
46724;BME280;32463;48.298;11.620;2023-03-14T08:28:52;94603.13;;;9.49;100.00
46724;BME280;32463;48.298;11.620;2023-03-14T08:31:19;94615.53;;;9.60;100.00
46724;BME280;32463;48.298;11.620;2023-03-14T08:33:45;94609.97;;;9.63;100.00
46724;BME280;32463;48.298;11.620;2023-03-14T08:36:12;94622.50;;;9.66;100.00
46724;BME280;32463;48.298;11.620;2023-03-14T08:38:38;94623.50;;;9.65;100.00
46724;BME280;32463;48.298;11.620;2023-03-14T08:41:07;94622.16;;;9.82;100.00
46724;BME280;32463;48.298;11.620;2023-03-14T08:43:34;94625.72;;;9.74;100.00
46724;BME280;32463;48.298;11.620;2023-03-14T08:46:01;94629.09;;;9.82;100.00
46724;BME280;32463;48.298;11.620;2023-03-14T08:48:29;94633.91;;;9.91;100.00
46724;BME280;32463;48.298;11.620;2023-03-14T08:51:01;94635.13;;;9.95;100.00
46724;BME280;32463;48.298;11.620;2023-03-14T08:53:29;94643.09;;;10.00;100.00
46724;BME280;32463;48.298;11.620;2023-03-14T08:55:56;94644.50;;;10.09;100.00
46724;BME280;32463;48.298;11.620;2023-03-14T08:58:22;94646.53;;;10.21;100.00
46724;BME280;32463;48.298;11.620;2023-03-14T09:00:49;94633.97;;;10.18;100.00
46724;BME280;32463;48.298;11.620;2023-03-14T09:03:16;94629.63;;;10.31;100.00
46724;BME280;32463;48.298;11.620;2023-03-14T09:05:42;94629.63;;;10.25;100.00
46724;BME280;32463;48.298;11.620;2023-03-14T09:08:09;94637.41;;;10.38;100.00
46724;BME280;32463;48.298;11.620;2023-03-14T09:10:36;94640.00;;;10.44;100.00
46724;BME280;32463;48.298;11.620;2023-03-14T09:13:03;94634.22;;;10.36;100.00
46724;BME280;32463;48.298;11.620;2023-03-14T09:15:30;94637.00;;;10.41;100.00
46724;BME280;32463;48.298;11.620;2023-03-14T09:17:56;94639.41;;;10.49;100.00
46724;BME280;32463;48.298;11.620;2023-03-14T09:20:22;94630.25;;;10.33;100.00
46724;BME280;32463;48.298;11.620;2023-03-14T09:22:49;94638.81;;;10.54;100.00
46724;BME280;32463;48.298;11.620;2023-03-14T09:25:16;94634.00;;;10.77;100.00
46724;BME280;32463;48.298;11.620;2023-03-14T09:27:42;94626.81;;;10.86;100.00
46724;BME280;32463;48.298;11.620;2023-03-14T09:30:10;94637.59;;;10.83;100.00
46724;BME280;32463;48.298;11.620;2023-03-14T09:32:38;94631.41;;;10.84;100.00
46724;BME280;32463;48.298;11.620;2023-03-14T09:35:04;94627.03;;;10.77;100.00
46724;BME280;32463;48.298;11.620;2023-03-14T09:37:31;94624.44;;;10.77;100.00
46724;BME280;32463;48.298;11.620;2023-03-14T09:39:58;94619.63;;;10.74;100.00
46724;BME280;32463;48.298;11.620;2023-03-14T09:42:26;94603.72;;;10.58;100.00
46724;BME280;32463;48.298;11.620;2023-03-14T09:44:59;94609.31;;;10.61;100.00
46724;BME280;32463;48.298;11.620;2023-03-14T09:47:26;94608.47;;;10.74;100.00
46724;BME280;32463;48.298;11.620;2023-03-14T09:49:53;94615.47;;;10.60;100.00
46724;BME280;32463;48.298;11.620;2023-03-14T09:52:31;94608.50;;;10.67;100.00
46724;BME280;32463;48.298;11.620;2023-03-14T09:55:06;94614.88;;;10.58;100.00
46724;BME280;32463;48.298;11.620;2023-03-14T09:57:36;94617.44;;;10.85;100.00
46724;BME280;32463;48.298;11.620;2023-03-14T10:02:42;94610.66;;;10.77;100.00
46724;BME280;32463;48.298;11.620;2023-03-14T10:05:16;94598.69;;;10.83;97.73
46724;BME280;32463;48.298;11.620;2023-03-14T10:07:43;94601.69;;;10.79;100.00
46724;BME280;32463;48.298;11.620;2023-03-14T10:12:46;94593.34;;;10.64;100.00
46724;BME280;32463;48.298;11.620;2023-03-14T10:15:15;94598.69;;;10.96;100.00
46724;BME280;32463;48.298;11.620;2023-03-14T10:17:50;94592.91;;;10.87;96.47
46724;BME280;32463;48.298;11.620;2023-03-14T10:23:00;94593.59;;;11.27;95.01
46724;BME280;32463;48.298;11.620;2023-03-14T10:25:30;94590.53;;;11.43;93.06
46724;BME280;32463;48.298;11.620;2023-03-14T10:27:58;94596.59;;;11.69;92.49
46724;BME280;32463;48.298;11.620;2023-03-14T10:30:41;94591.38;;;11.82;83.22
46724;BME280;32463;48.298;11.620;2023-03-14T10:33:16;94590.25;;;12.28;82.16
46724;BME280;32463;48.298;11.620;2023-03-14T10:35:58;94586.44;;;12.55;80.05
46724;BME280;32463;48.298;11.620;2023-03-14T10:38:33;94590.84;;;12.79;79.29
46724;BME280;32463;48.298;11.620;2023-03-14T10:41:01;94589.63;;;12.57;76.66
46724;BME280;32463;48.298;11.620;2023-03-14T10:43:34;94585.84;;;12.03;81.01
46724;BME280;32463;48.298;11.620;2023-03-14T10:46:31;94592.38;;;11.74;84.61
46724;BME280;32463;48.298;11.620;2023-03-14T10:48:59;94592.91;;;11.52;86.58
46724;BME280;32463;48.298;11.620;2023-03-14T10:51:30;94582.38;;;11.40;89.30
46724;BME280;32463;48.298;11.620;2023-03-14T10:54:04;94587.63;;;11.20;83.77
46724;BME280;32463;48.298;11.620;2023-03-14T10:56:38;94592.34;;;11.36;90.28
46724;BME280;32463;48.298;11.620;2023-03-14T10:59:13;94588.69;;;11.57;89.94
46724;BME280;32463;48.298;11.620;2023-03-14T11:01:58;94587.81;;;11.76;84.46
46724;BME280;32463;48.298;11.620;2023-03-14T11:20:35;94593.97;;;12.63;71.77
46724;BME280;32463;48.298;11.620;2023-03-14T11:23:16;94584.03;;;12.54;71.50
46724;BME280;32463;48.298;11.620;2023-03-14T11:25:56;94584.00;;;12.60;74.91
46724;BME280;32463;48.298;11.620;2023-03-14T11:28:33;94575.25;;;12.55;72.18
46724;BME280;32463;48.298;11.620;2023-03-14T11:34:01;94571.59;;;12.62;71.02
46724;BME280;32463;48.298;11.620;2023-03-14T11:36:36;94572.28;;;12.26;73.34
46724;BME280;32463;48.298;11.620;2023-03-14T11:39:08;94564.59;;;12.38;74.31
46724;BME280;32463;48.298;11.620;2023-03-14T11:41:40;94565.81;;;12.35;75.90
46724;BME280;32463;48.298;11.620;2023-03-14T11:44:17;94562.25;;;12.30;76.64
46724;BME280;32463;48.298;11.620;2023-03-14T11:46:53;94554.31;;;12.25;79.04
46724;BME280;32463;48.298;11.620;2023-03-14T11:51:58;94555.19;;;12.19;79.83
46724;BME280;32463;48.298;11.620;2023-03-14T11:54:34;94549.97;;;12.19;78.37
46724;BME280;32463;48.298;11.620;2023-03-14T11:57:05;94549.19;;;12.18;77.76
46724;BME280;32463;48.298;11.620;2023-03-14T12:13:17;94539.22;;;12.15;74.39
46724;BME280;32463;48.298;11.620;2023-03-14T12:15:57;94550.13;;;12.24;75.08
46724;BME280;32463;48.298;11.620;2023-03-14T12:18:30;94535.22;;;12.12;73.61
46724;BME280;32463;48.298;11.620;2023-03-14T12:21:03;94540.47;;;12.06;72.69
46724;BME280;32463;48.298;11.620;2023-03-14T12:23:37;94547.22;;;12.13;72.31
46724;BME280;32463;48.298;11.620;2023-03-14T12:28:39;94533.69;;;12.30;70.99
46724;BME280;32463;48.298;11.620;2023-03-14T12:34:30;94531.03;;;12.98;68.30
46724;BME280;32463;48.298;11.620;2023-03-14T12:44:49;94528.06;;;13.61;63.15
46724;BME280;32463;48.298;11.620;2023-03-14T12:49:44;94512.72;;;14.59;59.93
46724;BME280;32463;48.298;11.620;2023-03-14T12:55:36;94523.50;;;13.08;67.00
46724;BME280;32463;48.298;11.620;2023-03-14T13:00:20;94551.63;;;12.13;73.68
46724;BME280;32463;48.298;11.620;2023-03-14T13:02:49;94554.81;;;12.15;74.47
46724;BME280;32463;48.298;11.620;2023-03-14T13:05:22;94548.94;;;11.95;77.36
46724;BME280;32463;48.298;11.620;2023-03-14T13:10:26;94582.00;;;12.12;74.88
46724;BME280;32463;48.298;11.620;2023-03-14T13:13:20;94557.28;;;12.03;75.53
46724;BME280;32463;48.298;11.620;2023-03-14T13:15:48;94562.00;;;12.13;74.10
46724;BME280;32463;48.298;11.620;2023-03-14T13:21:09;94555.41;;;11.86;76.87
46724;BME280;32463;48.298;11.620;2023-03-14T13:23:38;94571.03;;;11.79;80.66
46724;BME280;32463;48.298;11.620;2023-03-14T13:26:13;94580.44;;;11.67;81.08
46724;BME280;32463;48.298;11.620;2023-03-14T13:28:40;94569.88;;;11.62;82.04
46724;BME280;32463;48.298;11.620;2023-03-14T13:31:20;94563.59;;;11.38;86.06
46724;BME280;32463;48.298;11.620;2023-03-14T13:33:56;94591.84;;;11.08;93.00
46724;BME280;32463;48.298;11.620;2023-03-14T13:36:23;94599.28;;;10.85;100.00
46724;BME280;32463;48.298;11.620;2023-03-14T13:38:59;94607.91;;;10.65;100.00
46724;BME280;32463;48.298;11.620;2023-03-14T13:41:27;94617.25;;;10.86;100.00
46724;BME280;32463;48.298;11.620;2023-03-14T13:44:07;94633.00;;;10.71;100.00
46724;BME280;32463;48.298;11.620;2023-03-14T13:46:36;94620.06;;;10.65;100.00
46724;BME280;32463;48.298;11.620;2023-03-14T13:49:04;94634.22;;;10.36;100.00
46724;BME280;32463;48.298;11.620;2023-03-14T13:51:32;94632.38;;;10.03;100.00
46724;BME280;32463;48.298;11.620;2023-03-14T13:53:59;94631.13;;;9.93;100.00
46724;BME280;32463;48.298;11.620;2023-03-14T13:56:28;94635.88;;;9.76;100.00
46724;BME280;32463;48.298;11.620;2023-03-14T13:58:56;94667.72;;;9.70;100.00
46724;BME280;32463;48.298;11.620;2023-03-14T14:01:25;94652.59;;;9.80;100.00
46724;BME280;32463;48.298;11.620;2023-03-14T14:03:55;94655.19;;;9.80;100.00
46724;BME280;32463;48.298;11.620;2023-03-14T14:06:39;94661.78;;;9.76;100.00
46724;BME280;32463;48.298;11.620;2023-03-14T14:09:15;94682.41;;;9.63;100.00
46724;BME280;32463;48.298;11.620;2023-03-14T14:12:29;94683.00;;;9.65;100.00
46724;BME280;32463;48.298;11.620;2023-03-14T14:14:36;94690.31;;;9.55;100.00